Saturday, October 25, 2014, 4:36 PM EDT

KDYL, Doylestown Airport

Location: Doylestown, PA, United States Lat: 40.333
Local Time: 4:36 PM EDT (20:36 GMT) Lon: -75.117
Time Zone: US/Eastern Elev: 393 ft

Show me the last for .
Show Decoded

2014-10-25 15:54 METAR KDYL 251954Z AUTO VRB06G18KT 10SM CLR 19/06 A2971 RMK AO2 SLP062 T01890056
                 $ =
2014-10-25 14:54 METAR KDYL 251854Z AUTO 29010G17KT 10SM CLR 19/06 A2974 RMK AO2 SLP069 T01890056
                 $ =
2014-10-25 13:54 METAR KDYL 251754Z AUTO 29013G17KT 10SM FEW050 19/06 A2976 RMK AO2 SLP078
                 T01890061 10189 20044 56036 $ =
2014-10-25 12:54 METAR KDYL 251654Z AUTO VRB06KT 10SM FEW050 19/07 A2979 RMK AO2 SLP086 T01890067
                 $ =
2014-10-25 11:54 METAR KDYL 251554Z AUTO 24006KT 10SM CLR 17/06 A2983 RMK AO2 SLP102 T01670061 $
                 =
2014-10-25 10:54 METAR KDYL 251454Z AUTO 27007KT 250V310 10SM CLR 15/05 A2987 RMK AO2 SLP115
                 T01500050 58012 $ =
2014-10-25 09:54 METAR KDYL 251354Z AUTO 23003KT 10SM CLR 12/04 A2989 RMK AO2 SLP121 T01220039 $
                 =
2014-10-25 07:54 METAR KDYL 251154Z AUTO 00000KT 10SM CLR 05/01 A2991 RMK AO2 SLP129 T00500006
                 10100 20033 53003 $ =
2014-10-25 06:54 METAR KDYL 251054Z AUTO 00000KT 10SM CLR 04/01 A2990 RMK AO2 SLP125 T00440006 =
2014-10-25 05:54 METAR KDYL 250954Z AUTO 00000KT 10SM CLR 04/01 A2989 RMK AO2 SLP123 T00440011 =
2014-10-25 04:54 METAR KDYL 250854Z AUTO 00000KT 10SM CLR 04/02 A2990 RMK AO2 SLP125 T00440017
                 53003 =
2014-10-25 03:54 METAR KDYL 250754Z AUTO 00000KT 10SM CLR 06/01 A2989 RMK AO2 SLP121 T00560006 =
2014-10-25 02:54 METAR KDYL 250654Z AUTO 36003KT 10SM CLR 08/01 A2989 RMK AO2 SLP123 T00830011 =
2014-10-25 01:54 METAR KDYL 250554Z AUTO 29003KT 10SM CLR 10/01 A2989 RMK AO2 SLP120 T01000006
                 10156 20083 53007 =
2014-10-25 00:54 METAR KDYL 250454Z AUTO 32005KT 10SM CLR 11/03 A2988 RMK AO2 SLP116 T01110028
                 402000100 =
2014-10-24 23:54 METAR KDYL 250354Z AUTO 00000KT 10SM CLR 12/03 A2987 RMK AO2 SLP113 T01170033 =
2014-10-24 21:54 METAR KDYL 250154Z AUTO 31004KT 10SM CLR 13/06 A2986 RMK AO2 SLP112 T01280056 =
2014-10-24 20:54 METAR KDYL 250054Z AUTO 00000KT 10SM CLR 14/06 A2986 RMK AO2 SLP110 T01390056 =
2014-10-24 19:54 METAR KDYL 242354Z AUTO 32004KT 10SM CLR 15/06 A2984 RMK AO2 SLP106 T01500056
                 10200 20150 53016 =
2014-10-24 18:54 METAR KDYL 242254Z AUTO 32005KT 10SM CLR 16/05 A2983 RMK AO2 SLP102 T01610050 =
2014-10-24 17:54 METAR KDYL 242154Z AUTO 32008KT 10SM CLR 17/06 A2981 RMK AO2 SLP092 T01720056 =
2014-10-24 16:54 METAR KDYL 242054Z AUTO 34006KT 10SM CLR 18/06 A2980 RMK AO2 SLP089 T01830056
                 55003 =

Support USWX by starting your Amazon purchase here.